sensor_id;sensor_type;location;lat;lon;timestamp;P1;durP1;ratioP1;P2;durP2;ratioP2
9657;SDS011;4867;48.112;11.622;2023-09-07T00:01:00;8.33;;;7.53;;
9657;SDS011;4867;48.112;11.622;2023-09-07T00:03:30;8.10;;;7.30;;
9657;SDS011;4867;48.112;11.622;2023-09-07T00:05:58;8.13;;;7.30;;
9657;SDS011;4867;48.112;11.622;2023-09-07T00:08:25;8.33;;;7.30;;
9657;SDS011;4867;48.112;11.622;2023-09-07T00:10:52;8.20;;;7.43;;
9657;SDS011;4867;48.112;11.622;2023-09-07T00:13:19;8.30;;;7.47;;
9657;SDS011;4867;48.112;11.622;2023-09-07T00:15:47;7.53;;;6.83;;
9657;SDS011;4867;48.112;11.622;2023-09-07T00:18:14;8.20;;;6.80;;
9657;SDS011;4867;48.112;11.622;2023-09-07T00:20:45;9.43;;;7.40;;
9657;SDS011;4867;48.112;11.622;2023-09-07T00:23:12;7.97;;;7.20;;
9657;SDS011;4867;48.112;11.622;2023-09-07T00:25:40;6.90;;;6.30;;
9657;SDS011;4867;48.112;11.622;2023-09-07T00:28:07;8.70;;;6.90;;
9657;SDS011;4867;48.112;11.622;2023-09-07T00:30:34;7.73;;;6.70;;
9657;SDS011;4867;48.112;11.622;2023-09-07T00:33:01;6.80;;;6.20;;
9657;SDS011;4867;48.112;11.622;2023-09-07T00:35:29;8.03;;;7.33;;
9657;SDS011;4867;48.112;11.622;2023-09-07T00:37:56;7.80;;;7.00;;
9657;SDS011;4867;48.112;11.622;2023-09-07T00:40:23;7.30;;;6.57;;
9657;SDS011;4867;48.112;11.622;2023-09-07T00:42:53;7.80;;;7.00;;
9657;SDS011;4867;48.112;11.622;2023-09-07T00:45:20;8.07;;;7.00;;
9657;SDS011;4867;48.112;11.622;2023-09-07T00:47:48;7.47;;;6.77;;
9657;SDS011;4867;48.112;11.622;2023-09-07T00:50:15;7.30;;;6.60;;
9657;SDS011;4867;48.112;11.622;2023-09-07T00:52:43;8.13;;;7.33;;
9657;SDS011;4867;48.112;11.622;2023-09-07T00:55:11;8.20;;;7.40;;
9657;SDS011;4867;48.112;11.622;2023-09-07T00:57:39;7.80;;;7.07;;
9657;SDS011;4867;48.112;11.622;2023-09-07T01:00:09;8.47;;;7.60;;
9657;SDS011;4867;48.112;11.622;2023-09-07T01:02:37;8.60;;;7.80;;
9657;SDS011;4867;48.112;11.622;2023-09-07T01:05:04;8.27;;;7.57;;
9657;SDS011;4867;48.112;11.622;2023-09-07T01:07:37;9.23;;;8.43;;
9657;SDS011;4867;48.112;11.622;2023-09-07T01:10:10;8.87;;;8.13;;
9657;SDS011;4867;48.112;11.622;2023-09-07T01:12:37;8.97;;;8.23;;
9657;SDS011;4867;48.112;11.622;2023-09-07T01:15:06;9.50;;;8.63;;
9657;SDS011;4867;48.112;11.622;2023-09-07T01:17:33;10.00;;;8.80;;
9657;SDS011;4867;48.112;11.622;2023-09-07T01:20:03;9.00;;;8.10;;
9657;SDS011;4867;48.112;11.622;2023-09-07T01:22:36;8.50;;;7.67;;
9657;SDS011;4867;48.112;11.622;2023-09-07T01:25:05;8.37;;;7.57;;
9657;SDS011;4867;48.112;11.622;2023-09-07T01:27:34;8.33;;;7.53;;
9657;SDS011;4867;48.112;11.622;2023-09-07T01:30:02;8.93;;;7.40;;
9657;SDS011;4867;48.112;11.622;2023-09-07T01:32:30;8.37;;;7.57;;
9657;SDS011;4867;48.112;11.622;2023-09-07T01:34:57;8.03;;;7.33;;
9657;SDS011;4867;48.112;11.622;2023-09-07T01:37:26;7.90;;;7.10;;
9657;SDS011;4867;48.112;11.622;2023-09-07T01:39:53;7.63;;;6.90;;
9657;SDS011;4867;48.112;11.622;2023-09-07T01:42:21;8.93;;;7.97;;
9657;SDS011;4867;48.112;11.622;2023-09-07T01:44:48;9.03;;;8.23;;
9657;SDS011;4867;48.112;11.622;2023-09-07T01:47:16;8.77;;;7.87;;
9657;SDS011;4867;48.112;11.622;2023-09-07T01:49:43;8.93;;;8.03;;
9657;SDS011;4867;48.112;11.622;2023-09-07T01:52:11;7.77;;;7.17;;
9657;SDS011;4867;48.112;11.622;2023-09-07T01:54:38;8.13;;;7.43;;
9657;SDS011;4867;48.112;11.622;2023-09-07T01:57:05;7.63;;;7.03;;
9657;SDS011;4867;48.112;11.622;2023-09-07T01:59:32;7.57;;;6.93;;
9657;SDS011;4867;48.112;11.622;2023-09-07T02:02:00;7.57;;;6.87;;
9657;SDS011;4867;48.112;11.622;2023-09-07T02:04:27;7.43;;;6.77;;
9657;SDS011;4867;48.112;11.622;2023-09-07T02:06:55;7.30;;;6.70;;
9657;SDS011;4867;48.112;11.622;2023-09-07T02:09:22;8.30;;;7.50;;
9657;SDS011;4867;48.112;11.622;2023-09-07T02:11:49;8.90;;;8.10;;
9657;SDS011;4867;48.112;11.622;2023-09-07T02:14:17;8.53;;;7.73;;
9657;SDS011;4867;48.112;11.622;2023-09-07T02:16:44;7.90;;;7.13;;
9657;SDS011;4867;48.112;11.622;2023-09-07T02:19:12;7.70;;;6.97;;
9657;SDS011;4867;48.112;11.622;2023-09-07T02:21:40;7.57;;;6.73;;
9657;SDS011;4867;48.112;11.622;2023-09-07T02:24:07;7.40;;;6.80;;
9657;SDS011;4867;48.112;11.622;2023-09-07T02:26:35;7.23;;;6.53;;
9657;SDS011;4867;48.112;11.622;2023-09-07T02:29:02;7.67;;;6.97;;
9657;SDS011;4867;48.112;11.622;2023-09-07T02:31:33;7.37;;;6.77;;
9657;SDS011;4867;48.112;11.622;2023-09-07T02:34:01;6.70;;;6.10;;
9657;SDS011;4867;48.112;11.622;2023-09-07T02:36:29;7.60;;;7.00;;
9657;SDS011;4867;48.112;11.622;2023-09-07T02:38:56;7.73;;;7.03;;
9657;SDS011;4867;48.112;11.622;2023-09-07T02:41:24;7.50;;;6.80;;
9657;SDS011;4867;48.112;11.622;2023-09-07T02:43:51;8.37;;;7.67;;
9657;SDS011;4867;48.112;11.622;2023-09-07T02:46:18;8.77;;;7.97;;
9657;SDS011;4867;48.112;11.622;2023-09-07T02:48:46;8.43;;;7.53;;
9657;SDS011;4867;48.112;11.622;2023-09-07T02:51:13;7.63;;;6.93;;
9657;SDS011;4867;48.112;11.622;2023-09-07T02:53:41;7.90;;;7.20;;
9657;SDS011;4867;48.112;11.622;2023-09-07T02:56:08;7.37;;;6.67;;
9657;SDS011;4867;48.112;11.622;2023-09-07T02:58:38;8.30;;;7.60;;
9657;SDS011;4867;48.112;11.622;2023-09-07T03:01:06;7.70;;;7.10;;
9657;SDS011;4867;48.112;11.622;2023-09-07T03:03:37;8.00;;;7.30;;
9657;SDS011;4867;48.112;11.622;2023-09-07T03:06:12;7.00;;;6.30;;
9657;SDS011;4867;48.112;11.622;2023-09-07T03:08:43;7.17;;;6.57;;
9657;SDS011;4867;48.112;11.622;2023-09-07T03:11:11;7.27;;;6.67;;
9657;SDS011;4867;48.112;11.622;2023-09-07T03:13:39;6.80;;;6.20;;
9657;SDS011;4867;48.112;11.622;2023-09-07T03:16:06;7.30;;;6.60;;
9657;SDS011;4867;48.112;11.622;2023-09-07T03:18:34;7.50;;;6.90;;
9657;SDS011;4867;48.112;11.622;2023-09-07T03:21:02;7.97;;;7.27;;
9657;SDS011;4867;48.112;11.622;2023-09-07T03:23:30;8.07;;;7.23;;
9657;SDS011;4867;48.112;11.622;2023-09-07T03:25:59;9.50;;;7.07;;
9657;SDS011;4867;48.112;11.622;2023-09-07T03:28:27;8.13;;;6.70;;
9657;SDS011;4867;48.112;11.622;2023-09-07T03:30:55;7.07;;;6.43;;
9657;SDS011;4867;48.112;11.622;2023-09-07T03:33:22;9.50;;;7.80;;
9657;SDS011;4867;48.112;11.622;2023-09-07T03:35:50;6.90;;;6.30;;
9657;SDS011;4867;48.112;11.622;2023-09-07T03:38:18;7.83;;;7.10;;
9657;SDS011;4867;48.112;11.622;2023-09-07T03:40:46;7.33;;;6.73;;
9657;SDS011;4867;48.112;11.622;2023-09-07T03:43:13;7.87;;;7.17;;
9657;SDS011;4867;48.112;11.622;2023-09-07T03:45:41;7.03;;;6.43;;
9657;SDS011;4867;48.112;11.622;2023-09-07T03:48:09;7.33;;;6.63;;
9657;SDS011;4867;48.112;11.622;2023-09-07T03:50:37;6.60;;;6.00;;
9657;SDS011;4867;48.112;11.622;2023-09-07T03:53:04;6.90;;;6.30;;
9657;SDS011;4867;48.112;11.622;2023-09-07T03:55:39;9.23;;;6.33;;
9657;SDS011;4867;48.112;11.622;2023-09-07T03:58:11;7.20;;;6.60;;
9657;SDS011;4867;48.112;11.622;2023-09-07T04:00:40;6.80;;;6.20;;
9657;SDS011;4867;48.112;11.622;2023-09-07T04:03:08;7.70;;;6.90;;
9657;SDS011;4867;48.112;11.622;2023-09-07T04:05:36;6.90;;;6.40;;
9657;SDS011;4867;48.112;11.622;2023-09-07T04:08:06;6.90;;;6.30;;
9657;SDS011;4867;48.112;11.622;2023-09-07T04:10:36;6.40;;;5.90;;
9657;SDS011;4867;48.112;11.622;2023-09-07T04:13:05;7.27;;;6.67;;
9657;SDS011;4867;48.112;11.622;2023-09-07T04:15:42;6.73;;;6.13;;
9657;SDS011;4867;48.112;11.622;2023-09-07T04:18:12;6.63;;;6.03;;
9657;SDS011;4867;48.112;11.622;2023-09-07T04:20:42;6.73;;;6.10;;
9657;SDS011;4867;48.112;11.622;2023-09-07T04:23:11;8.30;;;6.33;;
9657;SDS011;4867;48.112;11.622;2023-09-07T04:25:39;7.17;;;6.20;;
9657;SDS011;4867;48.112;11.622;2023-09-07T04:28:07;6.70;;;6.10;;
9657;SDS011;4867;48.112;11.622;2023-09-07T04:30:38;6.80;;;5.90;;
9657;SDS011;4867;48.112;11.622;2023-09-07T04:33:06;7.20;;;6.50;;
9657;SDS011;4867;48.112;11.622;2023-09-07T04:35:35;7.20;;;6.60;;
9657;SDS011;4867;48.112;11.622;2023-09-07T04:38:03;9.33;;;6.53;;
9657;SDS011;4867;48.112;11.622;2023-09-07T04:40:31;7.60;;;6.17;;
9657;SDS011;4867;48.112;11.622;2023-09-07T04:42:58;6.87;;;6.27;;
9657;SDS011;4867;48.112;11.622;2023-09-07T04:45:26;6.77;;;6.07;;
9657;SDS011;4867;48.112;11.622;2023-09-07T04:47:53;6.97;;;6.27;;
9657;SDS011;4867;48.112;11.622;2023-09-07T04:50:21;6.93;;;6.23;;
9657;SDS011;4867;48.112;11.622;2023-09-07T04:52:48;6.40;;;5.90;;
9657;SDS011;4867;48.112;11.622;2023-09-07T04:55:16;7.97;;;6.60;;
9657;SDS011;4867;48.112;11.622;2023-09-07T04:57:43;6.50;;;5.90;;
9657;SDS011;4867;48.112;11.622;2023-09-07T05:00:11;6.70;;;6.10;;
9657;SDS011;4867;48.112;11.622;2023-09-07T05:02:38;6.67;;;6.07;;
9657;SDS011;4867;48.112;11.622;2023-09-07T05:05:09;6.60;;;5.87;;
9657;SDS011;4867;48.112;11.622;2023-09-07T05:07:37;6.73;;;6.13;;
9657;SDS011;4867;48.112;11.622;2023-09-07T05:10:04;6.23;;;5.63;;
9657;SDS011;4867;48.112;11.622;2023-09-07T05:12:33;7.97;;;6.00;;
9657;SDS011;4867;48.112;11.622;2023-09-07T05:15:01;7.73;;;5.90;;
9657;SDS011;4867;48.112;11.622;2023-09-07T05:17:28;7.27;;;6.60;;
9657;SDS011;4867;48.112;11.622;2023-09-07T05:19:56;6.83;;;6.17;;
9657;SDS011;4867;48.112;11.622;2023-09-07T05:22:23;6.87;;;6.20;;
9657;SDS011;4867;48.112;11.622;2023-09-07T05:24:53;7.40;;;6.70;;
9657;SDS011;4867;48.112;11.622;2023-09-07T05:27:20;6.77;;;6.17;;
9657;SDS011;4867;48.112;11.622;2023-09-07T05:29:47;6.60;;;6.00;;
9657;SDS011;4867;48.112;11.622;2023-09-07T05:32:15;7.07;;;6.40;;
9657;SDS011;4867;48.112;11.622;2023-09-07T05:34:42;7.63;;;6.90;;
9657;SDS011;4867;48.112;11.622;2023-09-07T05:37:10;7.10;;;6.40;;
9657;SDS011;4867;48.112;11.622;2023-09-07T05:39:38;7.10;;;6.40;;
9657;SDS011;4867;48.112;11.622;2023-09-07T05:42:05;7.90;;;7.17;;
9657;SDS011;4867;48.112;11.622;2023-09-07T05:44:32;7.57;;;6.87;;
9657;SDS011;4867;48.112;11.622;2023-09-07T05:47:00;9.67;;;7.73;;
9657;SDS011;4867;48.112;11.622;2023-09-07T05:49:29;8.90;;;7.30;;
9657;SDS011;4867;48.112;11.622;2023-09-07T05:51:57;9.40;;;7.37;;
9657;SDS011;4867;48.112;11.622;2023-09-07T05:54:25;8.97;;;7.90;;
9657;SDS011;4867;48.112;11.622;2023-09-07T05:56:52;8.77;;;7.80;;
9657;SDS011;4867;48.112;11.622;2023-09-07T05:59:19;10.67;;;7.80;;
9657;SDS011;4867;48.112;11.622;2023-09-07T06:01:47;8.53;;;7.73;;
9657;SDS011;4867;48.112;11.622;2023-09-07T06:04:14;9.40;;;7.87;;
9657;SDS011;4867;48.112;11.622;2023-09-07T06:06:42;9.03;;;8.07;;
9657;SDS011;4867;48.112;11.622;2023-09-07T06:09:10;10.63;;;8.83;;
9657;SDS011;4867;48.112;11.622;2023-09-07T06:11:37;10.50;;;9.60;;
9657;SDS011;4867;48.112;11.622;2023-09-07T06:14:06;11.33;;;9.53;;
9657;SDS011;4867;48.112;11.622;2023-09-07T06:16:33;11.20;;;10.10;;
9657;SDS011;4867;48.112;11.622;2023-09-07T06:19:02;11.17;;;9.90;;
9657;SDS011;4867;48.112;11.622;2023-09-07T06:21:29;11.53;;;9.57;;
9657;SDS011;4867;48.112;11.622;2023-09-07T06:23:56;10.83;;;9.67;;
9657;SDS011;4867;48.112;11.622;2023-09-07T06:26:24;12.40;;;11.13;;
9657;SDS011;4867;48.112;11.622;2023-09-07T06:28:51;13.30;;;10.53;;
9657;SDS011;4867;48.112;11.622;2023-09-07T06:31:19;12.67;;;9.93;;
9657;SDS011;4867;48.112;11.622;2023-09-07T06:33:46;10.53;;;9.47;;
9657;SDS011;4867;48.112;11.622;2023-09-07T06:36:14;10.70;;;9.60;;
9657;SDS011;4867;48.112;11.622;2023-09-07T06:38:41;10.77;;;9.77;;
9657;SDS011;4867;48.112;11.622;2023-09-07T06:41:09;10.60;;;9.50;;
9657;SDS011;4867;48.112;11.622;2023-09-07T06:43:38;10.27;;;9.20;;
9657;SDS011;4867;48.112;11.622;2023-09-07T06:46:08;11.90;;;10.57;;
9657;SDS011;4867;48.112;11.622;2023-09-07T06:48:36;10.63;;;9.63;;
9657;SDS011;4867;48.112;11.622;2023-09-07T06:51:05;11.47;;;10.47;;
9657;SDS011;4867;48.112;11.622;2023-09-07T06:53:34;11.60;;;10.13;;
9657;SDS011;4867;48.112;11.622;2023-09-07T06:56:21;14.23;;;11.30;;
9657;SDS011;4867;48.112;11.622;2023-09-07T06:58:49;11.73;;;10.63;;
9657;SDS011;4867;48.112;11.622;2023-09-07T07:01:16;12.93;;;11.53;;
9657;SDS011;4867;48.112;11.622;2023-09-07T07:03:43;12.50;;;11.20;;
9657;SDS011;4867;48.112;11.622;2023-09-07T07:06:11;12.87;;;11.57;;
9657;SDS011;4867;48.112;11.622;2023-09-07T07:08:39;12.23;;;11.17;;
9657;SDS011;4867;48.112;11.622;2023-09-07T07:11:06;14.47;;;11.90;;
9657;SDS011;4867;48.112;11.622;2023-09-07T07:13:35;13.63;;;12.33;;
9657;SDS011;4867;48.112;11.622;2023-09-07T07:16:04;12.57;;;11.47;;
9657;SDS011;4867;48.112;11.622;2023-09-07T07:18:32;13.17;;;11.97;;
9657;SDS011;4867;48.112;11.622;2023-09-07T07:20:59;11.60;;;10.60;;
9657;SDS011;4867;48.112;11.622;2023-09-07T07:23:26;11.87;;;10.43;;
9657;SDS011;4867;48.112;11.622;2023-09-07T07:25:54;10.83;;;9.87;;
9657;SDS011;4867;48.112;11.622;2023-09-07T07:28:23;12.23;;;11.03;;
9657;SDS011;4867;48.112;11.622;2023-09-07T07:30:50;11.30;;;10.20;;
9657;SDS011;4867;48.112;11.622;2023-09-07T07:33:21;11.43;;;10.27;;
9657;SDS011;4867;48.112;11.622;2023-09-07T07:35:51;10.97;;;9.87;;
9657;SDS011;4867;48.112;11.622;2023-09-07T07:38:18;9.90;;;9.10;;
9657;SDS011;4867;48.112;11.622;2023-09-07T07:40:46;10.60;;;9.53;;
9657;SDS011;4867;48.112;11.622;2023-09-07T07:43:15;10.60;;;9.50;;
9657;SDS011;4867;48.112;11.622;2023-09-07T07:45:43;12.07;;;9.90;;
9657;SDS011;4867;48.112;11.622;2023-09-07T07:48:10;10.87;;;9.70;;
9657;SDS011;4867;48.112;11.622;2023-09-07T07:50:40;11.17;;;8.40;;
9657;SDS011;4867;48.112;11.622;2023-09-07T07:53:11;10.10;;;9.10;;
9657;SDS011;4867;48.112;11.622;2023-09-07T07:55:39;11.00;;;9.10;;
9657;SDS011;4867;48.112;11.622;2023-09-07T07:58:11;10.37;;;8.90;;
9657;SDS011;4867;48.112;11.622;2023-09-07T08:00:40;9.17;;;8.20;;
9657;SDS011;4867;48.112;11.622;2023-09-07T08:03:18;9.43;;;7.60;;
9657;SDS011;4867;48.112;11.622;2023-09-07T08:05:46;8.50;;;7.70;;
9657;SDS011;4867;48.112;11.622;2023-09-07T08:08:15;11.40;;;8.40;;
9657;SDS011;4867;48.112;11.622;2023-09-07T08:10:44;9.90;;;8.10;;
9657;SDS011;4867;48.112;11.622;2023-09-07T08:13:13;8.57;;;7.77;;
9657;SDS011;4867;48.112;11.622;2023-09-07T08:15:41;9.10;;;8.20;;
9657;SDS011;4867;48.112;11.622;2023-09-07T08:18:10;8.83;;;8.00;;
9657;SDS011;4867;48.112;11.622;2023-09-07T08:20:38;8.90;;;7.50;;
9657;SDS011;4867;48.112;11.622;2023-09-07T08:23:07;9.40;;;7.23;;
9657;SDS011;4867;48.112;11.622;2023-09-07T08:25:37;9.13;;;8.23;;
9657;SDS011;4867;48.112;11.622;2023-09-07T08:28:06;8.33;;;7.60;;
9657;SDS011;4867;48.112;11.622;2023-09-07T08:30:34;8.83;;;8.00;;
9657;SDS011;4867;48.112;11.622;2023-09-07T08:33:02;8.03;;;7.33;;
9657;SDS011;4867;48.112;11.622;2023-09-07T08:35:32;10.87;;;7.87;;
9657;SDS011;4867;48.112;11.622;2023-09-07T08:38:02;8.50;;;7.70;;
9657;SDS011;4867;48.112;11.622;2023-09-07T08:40:32;8.50;;;7.70;;
9657;SDS011;4867;48.112;11.622;2023-09-07T08:43:03;8.97;;;8.17;;
9657;SDS011;4867;48.112;11.622;2023-09-07T08:45:31;8.80;;;8.00;;
9657;SDS011;4867;48.112;11.622;2023-09-07T08:48:04;8.03;;;7.33;;
9657;SDS011;4867;48.112;11.622;2023-09-07T08:50:32;8.93;;;8.03;;
9657;SDS011;4867;48.112;11.622;2023-09-07T08:53:00;8.93;;;8.00;;
9657;SDS011;4867;48.112;11.622;2023-09-07T08:55:30;9.10;;;8.20;;
9657;SDS011;4867;48.112;11.622;2023-09-07T08:57:58;8.27;;;7.50;;
9657;SDS011;4867;48.112;11.622;2023-09-07T09:00:25;8.63;;;7.60;;
9657;SDS011;4867;48.112;11.622;2023-09-07T09:02:52;8.47;;;7.77;;
9657;SDS011;4867;48.112;11.622;2023-09-07T09:05:23;8.67;;;7.87;;
9657;SDS011;4867;48.112;11.622;2023-09-07T09:08:00;8.10;;;7.40;;
9657;SDS011;4867;48.112;11.622;2023-09-07T09:10:29;8.17;;;7.50;;
9657;SDS011;4867;48.112;11.622;2023-09-07T09:12:57;8.67;;;7.87;;
9657;SDS011;4867;48.112;11.622;2023-09-07T09:15:26;8.83;;;8.03;;
9657;SDS011;4867;48.112;11.622;2023-09-07T09:17:54;9.00;;;8.20;;
9657;SDS011;4867;48.112;11.622;2023-09-07T09:20:22;7.90;;;7.30;;
9657;SDS011;4867;48.112;11.622;2023-09-07T09:22:55;8.30;;;7.60;;
9657;SDS011;4867;48.112;11.622;2023-09-07T09:25:23;8.33;;;7.43;;
9657;SDS011;4867;48.112;11.622;2023-09-07T09:27:50;9.33;;;8.43;;
9657;SDS011;4867;48.112;11.622;2023-09-07T09:30:17;8.40;;;7.60;;
9657;SDS011;4867;48.112;11.622;2023-09-07T09:32:46;9.30;;;8.10;;
9657;SDS011;4867;48.112;11.622;2023-09-07T09:35:17;8.93;;;7.43;;
9657;SDS011;4867;48.112;11.622;2023-09-07T09:37:46;9.70;;;8.30;;
9657;SDS011;4867;48.112;11.622;2023-09-07T09:40:15;8.93;;;8.03;;
9657;SDS011;4867;48.112;11.622;2023-09-07T09:42:43;8.77;;;7.97;;
9657;SDS011;4867;48.112;11.622;2023-09-07T09:45:11;10.57;;;8.10;;
9657;SDS011;4867;48.112;11.622;2023-09-07T09:47:40;9.53;;;8.57;;
9657;SDS011;4867;48.112;11.622;2023-09-07T09:50:09;11.57;;;7.57;;
9657;SDS011;4867;48.112;11.622;2023-09-07T09:52:38;8.53;;;7.63;;
9657;SDS011;4867;48.112;11.622;2023-09-07T09:55:06;7.80;;;7.10;;
9657;SDS011;4867;48.112;11.622;2023-09-07T09:57:35;8.30;;;7.50;;
9657;SDS011;4867;48.112;11.622;2023-09-07T10:00:03;8.67;;;7.83;;
9657;SDS011;4867;48.112;11.622;2023-09-07T10:02:48;8.80;;;7.93;;
9657;SDS011;4867;48.112;11.622;2023-09-07T10:05:21;10.10;;;8.20;;
9657;SDS011;4867;48.112;11.622;2023-09-07T10:07:52;9.07;;;6.80;;
9657;SDS011;4867;48.112;11.622;2023-09-07T10:10:31;8.70;;;7.90;;
9657;SDS011;4867;48.112;11.622;2023-09-07T10:13:00;9.27;;;7.40;;
9657;SDS011;4867;48.112;11.622;2023-09-07T10:15:27;8.10;;;7.47;;
9657;SDS011;4867;48.112;11.622;2023-09-07T10:18:15;8.00;;;7.30;;
9657;SDS011;4867;48.112;11.622;2023-09-07T10:20:51;7.83;;;7.00;;
9657;SDS011;4867;48.112;11.622;2023-09-07T10:23:22;7.97;;;6.77;;
9657;SDS011;4867;48.112;11.622;2023-09-07T10:25:51;8.27;;;6.90;;
9657;SDS011;4867;48.112;11.622;2023-09-07T10:28:20;7.83;;;7.13;;
9657;SDS011;4867;48.112;11.622;2023-09-07T10:30:58;7.70;;;7.07;;
9657;SDS011;4867;48.112;11.622;2023-09-07T10:33:25;7.87;;;7.13;;
9657;SDS011;4867;48.112;11.622;2023-09-07T10:35:53;8.43;;;7.70;;
9657;SDS011;4867;48.112;11.622;2023-09-07T10:38:21;7.70;;;7.00;;
9657;SDS011;4867;48.112;11.622;2023-09-07T10:40:49;7.70;;;7.00;;
9657;SDS011;4867;48.112;11.622;2023-09-07T10:43:27;10.63;;;7.13;;
9657;SDS011;4867;48.112;11.622;2023-09-07T10:45:59;7.88;;;7.18;;
9657;SDS011;4867;48.112;11.622;2023-09-07T10:48:30;7.65;;;6.90;;
9657;SDS011;4867;48.112;11.622;2023-09-07T10:50:58;6.80;;;6.30;;
9657;SDS011;4867;48.112;11.622;2023-09-07T10:53:27;6.97;;;6.47;;
9657;SDS011;4867;48.112;11.622;2023-09-07T10:56:04;6.93;;;6.32;;
9657;SDS011;4867;48.112;11.622;2023-09-07T10:58:35;7.63;;;6.72;;
9657;SDS011;4867;48.112;11.622;2023-09-07T11:01:08;7.82;;;7.03;;
9657;SDS011;4867;48.112;11.622;2023-09-07T11:03:38;7.32;;;6.72;;
9657;SDS011;4867;48.112;11.622;2023-09-07T11:06:09;7.47;;;6.88;;
9657;SDS011;4867;48.112;11.622;2023-09-07T11:08:38;8.05;;;6.63;;
9657;SDS011;4867;48.112;11.622;2023-09-07T11:11:06;6.95;;;6.30;;
9657;SDS011;4867;48.112;11.622;2023-09-07T11:13:34;7.32;;;6.63;;
9657;SDS011;4867;48.112;11.622;2023-09-07T11:16:02;7.88;;;7.18;;
9657;SDS011;4867;48.112;11.622;2023-09-07T11:18:33;8.07;;;7.28;;
9657;SDS011;4867;48.112;11.622;2023-09-07T11:21:02;7.15;;;6.47;;
9657;SDS011;4867;48.112;11.622;2023-09-07T11:23:34;7.15;;;6.65;;
9657;SDS011;4867;48.112;11.622;2023-09-07T11:26:05;9.45;;;6.75;;
9657;SDS011;4867;48.112;11.622;2023-09-07T11:28:34;7.47;;;6.80;;
9657;SDS011;4867;48.112;11.622;2023-09-07T11:31:01;7.03;;;6.43;;
9657;SDS011;4867;48.112;11.622;2023-09-07T11:33:32;7.10;;;6.50;;
9657;SDS011;4867;48.112;11.622;2023-09-07T11:36:02;6.97;;;6.40;;
9657;SDS011;4867;48.112;11.622;2023-09-07T11:38:34;6.93;;;6.32;;
9657;SDS011;4867;48.112;11.622;2023-09-07T11:41:03;7.20;;;6.60;;
9657;SDS011;4867;48.112;11.622;2023-09-07T11:43:30;7.53;;;6.90;;
9657;SDS011;4867;48.112;11.622;2023-09-07T11:45:58;7.20;;;6.60;;
9657;SDS011;4867;48.112;11.622;2023-09-07T11:48:27;8.02;;;6.97;;
9657;SDS011;4867;48.112;11.622;2023-09-07T11:50:56;7.40;;;6.70;;
9657;SDS011;4867;48.112;11.622;2023-09-07T11:53:23;6.82;;;6.32;;
9657;SDS011;4867;48.112;11.622;2023-09-07T11:55:50;7.38;;;6.78;;
9657;SDS011;4867;48.112;11.622;2023-09-07T11:58:18;8.73;;;6.78;;
9657;SDS011;4867;48.112;11.622;2023-09-07T12:00:45;7.28;;;6.60;;
9657;SDS011;4867;48.112;11.622;2023-09-07T12:03:12;7.32;;;6.63;;
9657;SDS011;4867;48.112;11.622;2023-09-07T12:05:39;6.53;;;5.93;;
9657;SDS011;4867;48.112;11.622;2023-09-07T12:08:09;7.65;;;6.80;;
9657;SDS011;4867;48.112;11.622;2023-09-07T12:10:39;7.30;;;6.60;;
9657;SDS011;4867;48.112;11.622;2023-09-07T12:13:06;7.38;;;6.68;;
9657;SDS011;4867;48.112;11.622;2023-09-07T12:15:34;7.78;;;6.88;;
9657;SDS011;4867;48.112;11.622;2023-09-07T12:18:02;7.07;;;6.38;;
9657;SDS011;4867;48.112;11.622;2023-09-07T12:20:29;8.75;;;6.90;;
9657;SDS011;4867;48.112;11.622;2023-09-07T12:22:57;7.40;;;6.70;;
9657;SDS011;4867;48.112;11.622;2023-09-07T12:25:24;7.65;;;6.97;;
9657;SDS011;4867;48.112;11.622;2023-09-07T12:27:51;6.82;;;6.32;;
9657;SDS011;4867;48.112;11.622;2023-09-07T12:30:21;7.20;;;6.53;;
9657;SDS011;4867;48.112;11.622;2023-09-07T12:32:50;7.07;;;6.47;;
9657;SDS011;4867;48.112;11.622;2023-09-07T12:35:18;7.88;;;6.60;;
9657;SDS011;4867;48.112;11.622;2023-09-07T12:37:46;7.65;;;6.82;;
9657;SDS011;4867;48.112;11.622;2023-09-07T12:40:14;7.85;;;6.60;;
9657;SDS011;4867;48.112;11.622;2023-09-07T12:42:44;7.20;;;6.50;;
9657;SDS011;4867;48.112;11.622;2023-09-07T12:45:12;6.85;;;6.28;;
9657;SDS011;4867;48.112;11.622;2023-09-07T12:47:41;6.78;;;6.18;;
9657;SDS011;4867;48.112;11.622;2023-09-07T12:50:09;6.65;;;5.82;;
9657;SDS011;4867;48.112;11.622;2023-09-07T12:52:36;7.07;;;6.40;;
9657;SDS011;4867;48.112;11.622;2023-09-07T12:55:05;7.15;;;6.45;;
9657;SDS011;4867;48.112;11.622;2023-09-07T12:57:33;7.47;;;6.28;;
9657;SDS011;4867;48.112;11.622;2023-09-07T13:00:03;7.30;;;6.60;;
9657;SDS011;4867;48.112;11.622;2023-09-07T13:02:32;7.00;;;6.40;;
9657;SDS011;4867;48.112;11.622;2023-09-07T13:05:00;8.55;;;6.15;;
9657;SDS011;4867;48.112;11.622;2023-09-07T13:07:27;8.05;;;6.40;;
9657;SDS011;4867;48.112;11.622;2023-09-07T13:09:54;6.80;;;6.20;;
9657;SDS011;4867;48.112;11.622;2023-09-07T13:12:22;7.15;;;6.43;;
9657;SDS011;4867;48.112;11.622;2023-09-07T13:14:49;7.85;;;5.97;;
9657;SDS011;4867;48.112;11.622;2023-09-07T13:17:16;7.13;;;6.28;;
9657;SDS011;4867;48.112;11.622;2023-09-07T13:19:44;8.23;;;6.18;;
9657;SDS011;4867;48.112;11.622;2023-09-07T13:22:12;7.10;;;6.43;;
9657;SDS011;4867;48.112;11.622;2023-09-07T13:24:39;6.78;;;6.05;;
9657;SDS011;4867;48.112;11.622;2023-09-07T13:27:07;7.18;;;6.57;;
9657;SDS011;4867;48.112;11.622;2023-09-07T13:29:35;6.45;;;5.88;;
9657;SDS011;4867;48.112;11.622;2023-09-07T13:32:02;7.55;;;5.93;;
9657;SDS011;4867;48.112;11.622;2023-09-07T13:34:30;7.68;;;5.97;;
9657;SDS011;4867;48.112;11.622;2023-09-07T13:36:57;6.30;;;5.70;;
9657;SDS011;4867;48.112;11.622;2023-09-07T13:39:25;7.53;;;5.60;;
9657;SDS011;4867;48.112;11.622;2023-09-07T13:41:52;6.43;;;5.57;;
9657;SDS011;4867;48.112;11.622;2023-09-07T13:44:19;5.85;;;5.45;;
9657;SDS011;4867;48.112;11.622;2023-09-07T13:46:46;5.57;;;5.18;;
9657;SDS011;4867;48.112;11.622;2023-09-07T13:49:14;6.90;;;5.82;;
9657;SDS011;4867;48.112;11.622;2023-09-07T13:51:41;6.10;;;5.50;;
9657;SDS011;4867;48.112;11.622;2023-09-07T13:54:09;6.20;;;5.65;;
9657;SDS011;4867;48.112;11.622;2023-09-07T13:56:36;6.00;;;5.43;;
9657;SDS011;4867;48.112;11.622;2023-09-07T13:59:04;6.78;;;6.00;;
9657;SDS011;4867;48.112;11.622;2023-09-07T14:01:31;6.95;;;6.05;;
9657;SDS011;4867;48.112;11.622;2023-09-07T14:03:59;7.93;;;6.40;;
9657;SDS011;4867;48.112;11.622;2023-09-07T14:06:27;6.38;;;5.50;;
9657;SDS011;4867;48.112;11.622;2023-09-07T14:08:54;6.00;;;5.50;;
9657;SDS011;4867;48.112;11.622;2023-09-07T14:11:21;6.78;;;5.35;;
9657;SDS011;4867;48.112;11.622;2023-09-07T14:13:51;6.10;;;5.60;;
9657;SDS011;4867;48.112;11.622;2023-09-07T14:16:18;6.20;;;5.70;;
9657;SDS011;4867;48.112;11.622;2023-09-07T14:18:47;7.05;;;5.63;;
9657;SDS011;4867;48.112;11.622;2023-09-07T14:21:14;6.28;;;5.45;;
9657;SDS011;4867;48.112;11.622;2023-09-07T14:23:43;5.63;;;5.20;;
9657;SDS011;4867;48.112;11.622;2023-09-07T14:26:10;6.72;;;5.68;;
9657;SDS011;4867;48.112;11.622;2023-09-07T14:28:38;6.05;;;5.47;;
9657;SDS011;4867;48.112;11.622;2023-09-07T14:31:06;6.03;;;5.53;;
9657;SDS011;4867;48.112;11.622;2023-09-07T14:33:35;5.82;;;5.32;;
9657;SDS011;4867;48.112;11.622;2023-09-07T14:36:06;5.45;;;5.05;;
9657;SDS011;4867;48.112;11.622;2023-09-07T14:38:36;5.75;;;5.00;;
9657;SDS011;4867;48.112;11.622;2023-09-07T14:41:08;5.78;;;5.20;;
9657;SDS011;4867;48.112;11.622;2023-09-07T14:43:46;5.55;;;5.05;;
9657;SDS011;4867;48.112;11.622;2023-09-07T14:46:14;6.57;;;5.00;;
9657;SDS011;4867;48.112;11.622;2023-09-07T14:48:42;6.07;;;5.57;;
9657;SDS011;4867;48.112;11.622;2023-09-07T14:51:10;7.88;;;5.63;;
9657;SDS011;4867;48.112;11.622;2023-09-07T14:53:37;5.38;;;4.88;;
9657;SDS011;4867;48.112;11.622;2023-09-07T14:56:05;5.97;;;5.43;;
9657;SDS011;4867;48.112;11.622;2023-09-07T14:58:32;6.25;;;5.20;;
9657;SDS011;4867;48.112;11.622;2023-09-07T15:01:00;7.28;;;5.20;;
9657;SDS011;4867;48.112;11.622;2023-09-07T15:03:28;9.60;;;5.18;;
9657;SDS011;4867;48.112;11.622;2023-09-07T15:05:55;7.57;;;5.25;;